createdAt,value
2023-02-14T00:00:09.391Z,380.51
2023-02-14T00:00:19.385Z,380.51
2023-02-14T00:00:29.396Z,380.58
2023-02-14T00:00:39.383Z,380.54
2023-02-14T00:00:49.389Z,380.64
2023-02-14T00:00:59.776Z,380.66
2023-02-14T00:01:09.384Z,380.72
2023-02-14T00:01:19.385Z,380.73
2023-02-14T00:01:29.390Z,380.74
2023-02-14T00:01:39.389Z,380.73
2023-02-14T00:01:49.404Z,380.80
2023-02-14T00:01:59.385Z,380.77
2023-02-14T00:02:09.389Z,380.87
2023-02-14T00:02:19.438Z,380.88
2023-02-14T00:02:29.405Z,380.90
2023-02-14T00:02:39.442Z,380.86
2023-02-14T00:02:49.474Z,380.91
2023-02-14T00:02:59.468Z,380.90
2023-02-14T00:03:09.404Z,380.95
2023-02-14T00:03:19.403Z,380.92
2023-02-14T00:03:29.405Z,380.93
2023-02-14T00:03:39.402Z,380.93
2023-02-14T00:03:49.425Z,380.99
2023-02-14T00:03:59.405Z,380.99
2023-02-14T00:04:09.517Z,380.94
2023-02-14T00:04:19.428Z,380.98
2023-02-14T00:04:29.434Z,380.96
2023-02-14T00:04:39.482Z,380.99
2023-02-14T00:04:49.433Z,380.98
2023-02-14T00:04:59.457Z,380.88
2023-02-14T00:05:09.421Z,380.88
2023-02-14T00:05:19.421Z,380.93
2023-02-14T00:05:29.413Z,380.83
2023-02-14T00:05:39.408Z,380.89
2023-02-14T00:05:49.434Z,380.88
2023-02-14T00:05:59.412Z,380.82
2023-02-14T00:06:09.411Z,380.85
2023-02-14T00:06:19.415Z,380.75
2023-02-14T00:06:29.414Z,380.76
2023-02-14T00:06:39.418Z,380.78
2023-02-14T00:06:49.437Z,380.69
2023-02-14T00:06:59.425Z,380.74
2023-02-14T00:07:09.424Z,380.68
2023-02-14T00:07:19.423Z,380.67
2023-02-14T00:07:29.415Z,380.64
2023-02-14T00:07:39.435Z,380.56
2023-02-14T00:07:49.422Z,380.54
2023-02-14T00:07:59.428Z,380.53
2023-02-14T00:08:09.424Z,380.49
2023-02-14T00:08:19.429Z,380.47
2023-02-14T00:08:29.434Z,380.42
2023-02-14T00:08:39.428Z,380.40
2023-02-14T00:08:49.433Z,380.41
2023-02-14T00:08:59.438Z,380.45
2023-02-14T00:09:09.431Z,380.43
2023-02-14T00:09:19.427Z,380.43
2023-02-14T00:09:29.436Z,380.36
2023-02-14T00:09:39.434Z,380.35
2023-02-14T00:09:49.432Z,380.42
2023-02-14T00:09:59.431Z,380.36
2023-02-14T00:10:09.432Z,380.36
2023-02-14T00:10:19.469Z,380.38
2023-02-14T00:10:29.428Z,380.42
2023-02-14T00:10:39.437Z,380.38
2023-02-14T00:10:49.441Z,380.42
2023-02-14T00:10:59.806Z,380.41
2023-02-14T00:11:09.439Z,380.47
2023-02-14T00:11:19.450Z,380.46
2023-02-14T00:11:29.446Z,380.45
2023-02-14T00:11:39.442Z,380.46
2023-02-14T00:11:49.450Z,380.46
2023-02-14T00:11:59.440Z,380.49
2023-02-14T00:12:09.444Z,380.56
2023-02-14T00:12:19.445Z,380.53
2023-02-14T00:12:29.446Z,380.59
2023-02-14T00:12:39.444Z,380.60
2023-02-14T00:12:49.449Z,380.64
2023-02-14T00:12:59.465Z,380.64
2023-02-14T00:13:09.459Z,380.60
2023-02-14T00:13:19.451Z,380.66
2023-02-14T00:13:29.443Z,380.66
2023-02-14T00:13:39.465Z,380.71
2023-02-14T00:13:49.451Z,380.71
2023-02-14T00:13:59.445Z,380.66
2023-02-14T00:14:09.449Z,380.74
2023-02-14T00:14:19.453Z,380.78
2023-02-14T00:14:29.448Z,380.73
2023-02-14T00:14:39.470Z,380.77
2023-02-14T00:14:49.452Z,380.79
2023-02-14T00:14:59.454Z,380.88
2023-02-14T00:15:09.473Z,380.90
2023-02-14T00:15:19.457Z,380.88
2023-02-14T00:15:29.458Z,380.94
2023-02-14T00:15:39.469Z,380.90
2023-02-14T00:15:49.489Z,380.97
2023-02-14T00:15:59.500Z,380.93
2023-02-14T00:16:09.490Z,380.93
2023-02-14T00:16:19.509Z,380.96
2023-02-14T00:16:29.601Z,381.01
2023-02-14T00:16:39.464Z,381.00
2023-02-14T00:16:49.461Z,381.00
2023-02-14T00:16:59.470Z,381.08
2023-02-14T00:17:09.472Z,381.02
2023-02-14T00:17:19.467Z,381.08
2023-02-14T00:17:29.464Z,381.05
2023-02-14T00:17:39.475Z,381.09
2023-02-14T00:17:49.467Z,381.07
2023-02-14T00:17:59.552Z,381.10
2023-02-14T00:18:09.492Z,381.18
2023-02-14T00:18:19.838Z,381.11
2023-02-14T00:18:29.472Z,381.20
2023-02-14T00:18:39.469Z,381.17
2023-02-14T00:18:49.491Z,381.23
2023-02-14T00:18:59.471Z,381.16
2023-02-14T00:19:09.474Z,381.24
2023-02-14T00:19:19.474Z,381.23
2023-02-14T00:19:29.473Z,381.21
2023-02-14T00:19:39.472Z,381.24
2023-02-14T00:19:49.485Z,381.24
2023-02-14T00:19:59.469Z,381.20
2023-02-14T00:20:09.476Z,381.24
2023-02-14T00:20:19.477Z,381.24
2023-02-14T00:20:29.484Z,381.17
2023-02-14T00:20:39.473Z,381.22
2023-02-14T00:20:49.489Z,381.17
2023-02-14T00:20:59.896Z,381.22
2023-02-14T00:21:09.495Z,381.17
2023-02-14T00:21:19.486Z,381.19
2023-02-14T00:21:29.481Z,381.23
2023-02-14T00:21:39.495Z,381.19
2023-02-14T00:21:49.489Z,381.22
2023-02-14T00:21:59.483Z,381.15
2023-02-14T00:22:09.489Z,381.12
2023-02-14T00:22:19.490Z,381.14
2023-02-14T00:22:29.487Z,381.15
2023-02-14T00:22:39.492Z,381.12
2023-02-14T00:22:49.489Z,381.15
2023-02-14T00:22:59.487Z,381.05
2023-02-14T00:23:09.501Z,381.09
2023-02-14T00:23:19.495Z,381.08
2023-02-14T00:23:29.487Z,381.05
2023-02-14T00:23:39.501Z,380.99
2023-02-14T00:23:49.490Z,380.98
2023-02-14T00:23:59.494Z,381.00
2023-02-14T00:24:09.498Z,380.96
2023-02-14T00:24:19.502Z,380.96
2023-02-14T00:24:29.499Z,380.95
2023-02-14T00:24:39.504Z,380.91
2023-02-14T00:24:49.501Z,380.87
2023-02-14T00:24:59.496Z,380.92
2023-02-14T00:25:09.502Z,380.91
2023-02-14T00:25:19.502Z,380.84
2023-02-14T00:25:29.502Z,380.81
2023-02-14T00:25:39.502Z,380.83
2023-02-14T00:25:49.501Z,380.78
2023-02-14T00:25:59.514Z,380.79
2023-02-14T00:26:09.522Z,380.82
2023-02-14T00:26:19.498Z,380.78
2023-02-14T00:26:29.503Z,380.85
2023-02-14T00:26:39.543Z,380.81
2023-02-14T00:26:49.510Z,380.79
2023-02-14T00:26:59.521Z,380.79
2023-02-14T00:27:09.519Z,380.83
2023-02-14T00:27:19.508Z,380.86
2023-02-14T00:27:29.511Z,380.82
2023-02-14T00:27:39.508Z,380.90
2023-02-14T00:27:49.510Z,380.86
2023-02-14T00:27:59.528Z,380.80
2023-02-14T00:28:09.507Z,380.81
2023-02-14T00:28:19.507Z,380.83
2023-02-14T00:28:29.519Z,380.92
2023-02-14T00:28:39.512Z,380.92
2023-02-14T00:28:49.512Z,380.90
2023-02-14T00:28:59.522Z,380.93
2023-02-14T00:29:09.510Z,380.95
2023-02-14T00:29:19.517Z,381.02
2023-02-14T00:29:29.536Z,380.99
2023-02-14T00:29:39.535Z,381.03
2023-02-14T00:29:49.563Z,381.13
2023-02-14T00:29:59.593Z,381.13
2023-02-14T00:30:09.579Z,381.12
2023-02-14T00:30:19.592Z,381.17
2023-02-14T00:30:29.668Z,381.24
2023-02-14T00:30:39.636Z,381.19
2023-02-14T00:30:49.569Z,381.32
2023-02-14T00:30:59.857Z,381.35
2023-02-14T00:31:09.748Z,381.30
2023-02-14T00:31:19.686Z,381.39
2023-02-14T00:31:29.653Z,381.40
2023-02-14T00:31:39.724Z,381.38
2023-02-14T00:31:49.579Z,381.45
2023-02-14T00:31:59.631Z,381.54
2023-02-14T00:32:09.595Z,381.51
2023-02-14T00:32:19.526Z,381.61
2023-02-14T00:32:29.527Z,381.56
2023-02-14T00:32:39.547Z,381.60
2023-02-14T00:32:49.526Z,381.70
2023-02-14T00:32:59.534Z,381.75
2023-02-14T00:33:09.533Z,381.73
2023-02-14T00:33:19.537Z,381.82
2023-02-14T00:33:29.538Z,381.79
2023-02-14T00:33:39.532Z,381.79
2023-02-14T00:33:49.537Z,381.85
2023-02-14T00:33:59.532Z,381.86
2023-02-14T00:34:09.537Z,381.86
2023-02-14T00:34:19.536Z,381.93
2023-02-14T00:34:29.537Z,381.92
2023-02-14T00:34:39.553Z,381.99
2023-02-14T00:34:49.540Z,381.97
2023-02-14T00:34:59.541Z,381.95
2023-02-14T00:35:09.544Z,382.00
2023-02-14T00:35:19.548Z,382.04
2023-02-14T00:35:29.552Z,382.04
2023-02-14T00:35:39.546Z,382.08
2023-02-14T00:35:49.546Z,382.15
2023-02-14T00:35:59.545Z,382.10
2023-02-14T00:36:09.550Z,382.12
2023-02-14T00:36:19.542Z,382.19
2023-02-14T00:36:29.553Z,382.20
2023-02-14T00:36:39.550Z,382.15
2023-02-14T00:36:49.547Z,382.22
2023-02-14T00:36:59.552Z,382.22
2023-02-14T00:37:09.562Z,382.26
2023-02-14T00:37:19.549Z,382.21
2023-02-14T00:37:29.549Z,382.26
2023-02-14T00:37:39.548Z,382.31
2023-02-14T00:37:49.557Z,382.27
2023-02-14T00:37:59.556Z,382.25
2023-02-14T00:38:09.560Z,382.25
2023-02-14T00:38:19.555Z,382.29
2023-02-14T00:38:29.564Z,382.26
2023-02-14T00:38:39.556Z,382.27
2023-02-14T00:38:49.566Z,382.24
2023-02-14T00:38:59.557Z,382.27
2023-02-14T00:39:09.563Z,382.27
2023-02-14T00:39:19.570Z,382.27
2023-02-14T00:39:29.565Z,382.22
2023-02-14T00:39:39.564Z,382.21
2023-02-14T00:39:49.562Z,382.17
2023-02-14T00:39:59.558Z,382.21
2023-02-14T00:40:09.574Z,382.19
2023-02-14T00:40:19.579Z,382.18
2023-02-14T00:40:29.571Z,382.19
2023-02-14T00:40:39.566Z,382.12
2023-02-14T00:40:49.568Z,382.16
2023-02-14T00:40:59.913Z,382.09
2023-02-14T00:41:09.581Z,382.10
2023-02-14T00:41:19.577Z,382.08
2023-02-14T00:41:29.578Z,382.14
2023-02-14T00:41:39.580Z,382.12
2023-02-14T00:41:49.577Z,382.08
2023-02-14T00:41:59.575Z,382.15
2023-02-14T00:42:09.577Z,382.08
2023-02-14T00:42:19.585Z,382.13
2023-02-14T00:42:29.578Z,382.07
2023-02-14T00:42:39.586Z,382.11
2023-02-14T00:42:49.581Z,382.06
2023-02-14T00:42:59.577Z,382.14
2023-02-14T00:43:09.579Z,382.16
2023-02-14T00:43:19.591Z,382.18
2023-02-14T00:43:29.578Z,382.17
2023-02-14T00:43:39.576Z,382.21
2023-02-14T00:43:49.585Z,382.18
2023-02-14T00:43:59.584Z,382.23
2023-02-14T00:44:09.585Z,382.18
2023-02-14T00:44:19.586Z,382.18
2023-02-14T00:44:29.587Z,382.19
2023-02-14T00:44:39.585Z,382.23
2023-02-14T00:44:49.586Z,382.18
2023-02-14T00:44:59.599Z,382.23
2023-02-14T00:45:09.584Z,382.19
2023-02-14T00:45:19.596Z,382.29
2023-02-14T00:45:29.644Z,382.24
2023-02-14T00:45:39.605Z,382.24
2023-02-14T00:45:49.595Z,382.31
2023-02-14T00:45:59.672Z,382.27
2023-02-14T00:46:09.637Z,382.27
2023-02-14T00:46:19.596Z,382.33
2023-02-14T00:46:29.595Z,382.23
2023-02-14T00:46:39.601Z,382.24
2023-02-14T00:46:49.601Z,382.31
2023-02-14T00:46:59.595Z,382.26
2023-02-14T00:47:09.597Z,382.32
2023-02-14T00:47:19.598Z,382.35
2023-02-14T00:47:29.620Z,382.32
2023-02-14T00:47:39.598Z,382.33
2023-02-14T00:47:49.606Z,382.33
2023-02-14T00:47:59.602Z,382.29
2023-02-14T00:48:09.600Z,382.29
2023-02-14T00:48:19.598Z,382.31
2023-02-14T00:48:29.603Z,382.32
2023-02-14T00:48:39.603Z,382.28
2023-02-14T00:48:49.610Z,382.33
2023-02-14T00:48:59.641Z,382.33
2023-02-14T00:49:09.610Z,382.31
2023-02-14T00:49:19.609Z,382.40
2023-02-14T00:49:29.603Z,382.33
2023-02-14T00:49:39.604Z,382.42
2023-02-14T00:49:49.613Z,382.35
2023-02-14T00:49:59.621Z,382.37
2023-02-14T00:50:09.617Z,382.46
2023-02-14T00:50:19.612Z,382.38
2023-02-14T00:50:29.642Z,382.42
2023-02-14T00:50:39.615Z,382.38
2023-02-14T00:50:49.614Z,382.46
2023-02-14T00:51:00.015Z,382.40
2023-02-14T00:51:09.612Z,382.42
2023-02-14T00:51:19.615Z,382.40
2023-02-14T00:51:29.622Z,382.51
2023-02-14T00:51:39.620Z,382.53
2023-02-14T00:51:49.619Z,382.49
2023-02-14T00:51:59.621Z,382.50
2023-02-14T00:52:09.622Z,382.50
2023-02-14T00:52:19.629Z,382.47
2023-02-14T00:52:29.627Z,382.46
2023-02-14T00:52:39.638Z,382.47
2023-02-14T00:52:49.629Z,382.43
2023-02-14T00:52:59.626Z,382.44
2023-02-14T00:53:09.633Z,382.43
2023-02-14T00:53:19.628Z,382.37
2023-02-14T00:53:29.630Z,382.40
2023-02-14T00:53:39.633Z,382.41
2023-02-14T00:53:49.637Z,382.41
2023-02-14T00:53:59.641Z,382.38
2023-02-14T00:54:09.648Z,382.33
2023-02-14T00:54:19.646Z,382.32
2023-02-14T00:54:29.638Z,382.28
2023-02-14T00:54:39.644Z,382.34
2023-02-14T00:54:49.641Z,382.34
2023-02-14T00:54:59.640Z,382.26
2023-02-14T00:55:09.642Z,382.35
2023-02-14T00:55:19.642Z,382.27
2023-02-14T00:55:29.666Z,382.33
2023-02-14T00:55:39.647Z,382.32
2023-02-14T00:55:49.648Z,382.22
2023-02-14T00:55:59.641Z,382.25
2023-02-14T00:56:09.642Z,382.19
2023-02-14T00:56:19.651Z,382.19
2023-02-14T00:56:29.651Z,382.19
2023-02-14T00:56:39.645Z,382.13
2023-02-14T00:56:49.650Z,382.12
2023-02-14T00:56:59.654Z,382.16
2023-02-14T00:57:09.662Z,382.06
2023-02-14T00:57:19.649Z,382.12
2023-02-14T00:57:29.650Z,382.03
2023-02-14T00:57:39.648Z,382.08
2023-02-14T00:57:49.687Z,382.08
2023-02-14T00:57:59.652Z,382.02
2023-02-14T00:58:09.651Z,381.99
2023-02-14T00:58:19.658Z,382.05
2023-02-14T00:58:29.663Z,381.93
2023-02-14T00:58:39.655Z,381.99
2023-02-14T00:58:49.658Z,381.95
2023-02-14T00:58:59.665Z,381.93
2023-02-14T00:59:09.666Z,381.85
2023-02-14T00:59:19.662Z,381.93
2023-02-14T00:59:29.664Z,381.89
2023-02-14T00:59:39.663Z,381.88
2023-02-14T00:59:49.663Z,381.84
2023-02-14T00:59:59.665Z,381.79
2023-02-14T01:00:09.662Z,381.82
2023-02-14T01:00:19.669Z,381.80
2023-02-14T01:00:29.710Z,381.76
2023-02-14T01:00:39.780Z,381.77
2023-02-14T01:00:49.727Z,381.76
2023-02-14T01:01:00.156Z,381.73
2023-02-14T01:01:09.728Z,381.77
2023-02-14T01:01:19.721Z,381.68
2023-02-14T01:01:29.792Z,381.66
2023-02-14T01:01:39.668Z,381.72
2023-02-14T01:01:49.668Z,381.64
2023-02-14T01:01:59.675Z,381.69
2023-02-14T01:02:09.772Z,381.64
2023-02-14T01:02:19.737Z,381.65
2023-02-14T01:02:29.710Z,381.70
2023-02-14T01:02:39.755Z,381.63
2023-02-14T01:02:49.743Z,381.69
2023-02-14T01:02:59.680Z,381.64
2023-02-14T01:03:09.687Z,381.71
2023-02-14T01:03:19.665Z,381.71
2023-02-14T01:03:29.678Z,381.70
2023-02-14T01:03:39.684Z,381.74
2023-02-14T01:03:49.684Z,381.72
2023-02-14T01:03:59.682Z,381.78
2023-02-14T01:04:09.681Z,381.75
2023-02-14T01:04:19.684Z,381.86
2023-02-14T01:04:29.686Z,381.84
2023-02-14T01:04:39.688Z,381.85
2023-02-14T01:04:49.688Z,381.92
2023-02-14T01:04:59.684Z,381.86
2023-02-14T01:05:09.682Z,381.92
2023-02-14T01:05:19.699Z,382.00
2023-02-14T01:05:29.701Z,382.03
2023-02-14T01:05:39.703Z,382.03
2023-02-14T01:05:49.732Z,381.99
2023-02-14T01:05:59.695Z,382.07
2023-02-14T01:06:09.696Z,382.01
2023-02-14T01:06:19.715Z,382.01
2023-02-14T01:06:29.700Z,382.04
2023-02-14T01:06:39.708Z,382.11
2023-02-14T01:06:49.703Z,382.17
2023-02-14T01:06:59.716Z,382.10
2023-02-14T01:07:09.707Z,382.11
2023-02-14T01:07:19.701Z,382.14
2023-02-14T01:07:29.696Z,382.18
2023-02-14T01:07:39.710Z,382.22
2023-02-14T01:07:49.696Z,382.18
2023-02-14T01:07:59.697Z,382.19
2023-02-14T01:08:09.695Z,382.19
2023-02-14T01:08:19.698Z,382.15
2023-02-14T01:08:29.701Z,382.21
2023-02-14T01:08:39.704Z,382.15
2023-02-14T01:08:49.712Z,382.23
2023-02-14T01:08:59.712Z,382.19
2023-02-14T01:09:09.707Z,382.25
2023-02-14T01:09:19.703Z,382.26
2023-02-14T01:09:29.711Z,382.21
2023-02-14T01:09:39.711Z,382.25
2023-02-14T01:09:49.714Z,382.22
2023-02-14T01:09:59.738Z,382.26
2023-02-14T01:10:09.711Z,382.19
2023-02-14T01:10:19.725Z,382.27
2023-02-14T01:10:29.815Z,382.17
2023-02-14T01:10:39.722Z,382.18
2023-02-14T01:10:49.709Z,382.23
2023-02-14T01:11:00.167Z,382.16
2023-02-14T01:11:09.714Z,382.24
2023-02-14T01:11:19.715Z,382.17
2023-02-14T01:11:30.373Z,382.19
2023-02-14T01:11:39.731Z,382.19
2023-02-14T01:11:49.725Z,382.21
2023-02-14T01:11:59.751Z,382.19
2023-02-14T01:12:09.741Z,382.15
2023-02-14T01:12:19.720Z,382.17
2023-02-14T01:12:29.727Z,382.14
2023-02-14T01:12:39.726Z,382.13
2023-02-14T01:12:49.733Z,382.09
2023-02-14T01:12:59.726Z,382.08
2023-02-14T01:13:09.724Z,382.10
2023-02-14T01:13:19.731Z,382.04
2023-02-14T01:13:29.730Z,382.08
2023-02-14T01:13:39.727Z,382.00
2023-02-14T01:13:49.734Z,382.00
2023-02-14T01:13:59.735Z,382.03
2023-02-14T01:14:09.731Z,381.97
2023-02-14T01:14:19.733Z,381.93
2023-02-14T01:14:29.741Z,381.98
2023-02-14T01:14:39.737Z,381.90
2023-02-14T01:14:49.733Z,381.94
2023-02-14T01:14:59.745Z,381.88
2023-02-14T01:15:09.734Z,381.94
2023-02-14T01:15:19.738Z,381.88
2023-02-14T01:15:29.752Z,381.94
2023-02-14T01:15:39.747Z,381.90
2023-02-14T01:15:49.744Z,381.93
2023-02-14T01:15:59.746Z,381.93
2023-02-14T01:16:09.829Z,381.89
2023-02-14T01:16:19.804Z,381.90
2023-02-14T01:16:29.793Z,381.90
2023-02-14T01:16:39.847Z,381.91
2023-02-14T01:16:49.868Z,381.86
2023-02-14T01:16:59.756Z,381.91
2023-02-14T01:17:09.750Z,381.93
2023-02-14T01:17:19.739Z,381.91
2023-02-14T01:17:29.755Z,381.90
2023-02-14T01:17:39.757Z,381.91
2023-02-14T01:17:49.751Z,381.99
2023-02-14T01:17:59.753Z,381.92
2023-02-14T01:18:09.756Z,381.90
2023-02-14T01:18:19.754Z,381.94
2023-02-14T01:18:29.760Z,381.88
2023-02-14T01:18:39.756Z,381.99
2023-02-14T01:18:49.755Z,381.87
2023-02-14T01:18:59.758Z,381.90
2023-02-14T01:19:09.760Z,381.96
2023-02-14T01:19:19.772Z,381.95
2023-02-14T01:19:29.769Z,381.92
2023-02-14T01:19:39.764Z,381.95
2023-02-14T01:19:49.766Z,381.93
2023-02-14T01:19:59.767Z,381.93
2023-02-14T01:20:09.772Z,381.91
2023-02-14T01:20:19.770Z,381.92
2023-02-14T01:20:29.769Z,381.92
2023-02-14T01:20:39.792Z,381.95
2023-02-14T01:20:49.777Z,381.96
2023-02-14T01:21:00.109Z,381.90
2023-02-14T01:21:09.778Z,381.93
2023-02-14T01:21:19.780Z,381.94
2023-02-14T01:21:29.776Z,381.92
2023-02-14T01:21:39.790Z,381.95
2023-02-14T01:21:49.779Z,381.96
2023-02-14T01:21:59.780Z,381.86
2023-02-14T01:22:09.780Z,381.88
2023-02-14T01:22:19.778Z,381.91
2023-02-14T01:22:29.781Z,381.87
2023-02-14T01:22:39.782Z,381.92
2023-02-14T01:22:49.780Z,381.83
2023-02-14T01:22:59.779Z,381.88
2023-02-14T01:23:09.785Z,381.82
2023-02-14T01:23:19.785Z,381.86
2023-02-14T01:23:29.816Z,381.88
2023-02-14T01:23:39.787Z,381.89
2023-02-14T01:23:49.786Z,381.83
2023-02-14T01:23:59.788Z,381.88
2023-02-14T01:24:09.785Z,381.86
2023-02-14T01:24:19.823Z,381.82
2023-02-14T01:24:29.772Z,381.86
2023-02-14T01:24:39.787Z,381.76
2023-02-14T01:24:49.795Z,381.83
2023-02-14T01:24:59.801Z,381.75
2023-02-14T01:25:09.787Z,381.79
2023-02-14T01:25:19.800Z,381.76
2023-02-14T01:25:29.789Z,381.68
2023-02-14T01:25:39.799Z,381.73
2023-02-14T01:25:49.798Z,381.62
2023-02-14T01:25:59.822Z,381.70
2023-02-14T01:26:09.795Z,381.59
2023-02-14T01:26:19.792Z,381.60
2023-02-14T01:26:29.805Z,381.57
2023-02-14T01:26:39.796Z,381.56
2023-02-14T01:26:49.804Z,381.53
2023-02-14T01:26:59.803Z,381.53
2023-02-14T01:27:09.795Z,381.47
2023-02-14T01:27:19.797Z,381.52
2023-02-14T01:27:29.797Z,381.50
2023-02-14T01:27:39.788Z,381.50
2023-02-14T01:27:49.796Z,381.42
2023-02-14T01:27:59.799Z,381.44
2023-02-14T01:28:09.805Z,381.37
2023-02-14T01:28:19.803Z,381.41
2023-02-14T01:28:29.810Z,381.31
2023-02-14T01:28:39.801Z,381.29
2023-02-14T01:28:49.813Z,381.31
2023-02-14T01:28:59.801Z,381.27
2023-02-14T01:29:09.837Z,381.30
2023-02-14T01:29:19.803Z,381.26
2023-02-14T01:29:29.807Z,381.25
2023-02-14T01:29:39.816Z,381.18
2023-02-14T01:29:49.830Z,381.23
2023-02-14T01:29:59.896Z,381.17
2023-02-14T01:30:09.865Z,381.23
2023-02-14T01:30:19.830Z,381.25
2023-02-14T01:30:29.887Z,381.19
2023-02-14T01:30:39.830Z,381.28
2023-02-14T01:30:49.892Z,381.20
2023-02-14T01:31:00.045Z,381.20
2023-02-14T01:31:09.885Z,381.29
2023-02-14T01:31:19.957Z,381.22
2023-02-14T01:31:29.919Z,381.24
2023-02-14T01:31:39.932Z,381.23
2023-02-14T01:31:49.879Z,381.30
2023-02-14T01:31:59.868Z,381.23
2023-02-14T01:32:09.958Z,381.28
2023-02-14T01:32:19.979Z,381.27
2023-02-14T01:32:29.824Z,381.25
2023-02-14T01:32:39.828Z,381.30
2023-02-14T01:32:49.855Z,381.24
2023-02-14T01:32:59.835Z,381.29
2023-02-14T01:33:09.836Z,381.22
2023-02-14T01:33:19.837Z,381.22
2023-02-14T01:33:29.827Z,381.24
2023-02-14T01:33:39.842Z,381.27
2023-02-14T01:33:49.835Z,381.22
2023-02-14T01:33:59.847Z,381.26
2023-02-14T01:34:09.831Z,381.18
2023-02-14T01:34:19.835Z,381.25
2023-02-14T01:34:29.853Z,381.19
2023-02-14T01:34:39.840Z,381.20
2023-02-14T01:34:49.841Z,381.20
2023-02-14T01:34:59.848Z,381.14
2023-02-14T01:35:09.851Z,381.16
2023-02-14T01:35:19.850Z,381.18
2023-02-14T01:35:29.850Z,381.17
2023-02-14T01:35:39.855Z,381.18
2023-02-14T01:35:49.846Z,381.17
2023-02-14T01:35:59.847Z,381.13
2023-02-14T01:36:09.852Z,381.17
2023-02-14T01:36:19.854Z,381.11
2023-02-14T01:36:29.851Z,381.15
2023-02-14T01:36:39.863Z,381.11
2023-02-14T01:36:49.859Z,381.10
2023-02-14T01:36:59.853Z,381.10
2023-02-14T01:37:09.854Z,381.17
2023-02-14T01:37:19.852Z,381.11
2023-02-14T01:37:29.854Z,381.17
2023-02-14T01:37:39.867Z,381.12
2023-02-14T01:37:49.860Z,381.17
2023-02-14T01:37:59.880Z,381.16
2023-02-14T01:38:09.858Z,381.10
2023-02-14T01:38:19.856Z,381.12
2023-02-14T01:38:29.863Z,381.06
2023-02-14T01:38:39.859Z,381.13
2023-02-14T01:38:49.862Z,381.08
2023-02-14T01:38:59.871Z,381.08
2023-02-14T01:39:09.863Z,381.13
2023-02-14T01:39:19.864Z,381.15
2023-02-14T01:39:29.872Z,381.06
2023-02-14T01:39:39.864Z,381.17
2023-02-14T01:39:49.870Z,381.13
2023-02-14T01:39:59.864Z,381.19
2023-02-14T01:40:09.869Z,381.22
2023-02-14T01:40:19.870Z,381.18
2023-02-14T01:40:29.879Z,381.22
2023-02-14T01:40:39.870Z,381.21
2023-02-14T01:40:49.866Z,381.22
2023-02-14T01:41:00.286Z,381.18
2023-02-14T01:41:09.868Z,381.22
2023-02-14T01:41:19.873Z,381.17
2023-02-14T01:41:29.870Z,381.21
2023-02-14T01:41:39.870Z,381.25
2023-02-14T01:41:49.882Z,381.22
2023-02-14T01:41:59.888Z,381.25
2023-02-14T01:42:09.875Z,381.19
2023-02-14T01:42:19.893Z,381.19
2023-02-14T01:42:29.873Z,381.27
2023-02-14T01:42:39.874Z,381.28
2023-02-14T01:42:49.882Z,381.23
2023-02-14T01:42:59.882Z,381.26
2023-02-14T01:43:09.877Z,381.25
2023-02-14T01:43:19.877Z,381.20
2023-02-14T01:43:29.880Z,381.28
2023-02-14T01:43:39.882Z,381.25
2023-02-14T01:43:49.881Z,381.21
2023-02-14T01:43:59.900Z,381.24
2023-02-14T01:44:09.884Z,381.24
2023-02-14T01:44:19.894Z,381.27
2023-02-14T01:44:29.889Z,381.29
2023-02-14T01:44:39.888Z,381.32
2023-02-14T01:44:49.894Z,381.30
2023-02-14T01:44:59.891Z,381.32
2023-02-14T01:45:09.888Z,381.35
2023-02-14T01:45:19.903Z,381.32
2023-02-14T01:45:29.940Z,381.32
2023-02-14T01:45:39.945Z,381.40
2023-02-14T01:45:49.938Z,381.34
2023-02-14T01:45:59.926Z,381.41
2023-02-14T01:46:09.904Z,381.34
2023-02-14T01:46:19.914Z,381.36
2023-02-14T01:46:29.899Z,381.39
2023-02-14T01:46:39.909Z,381.41
2023-02-14T01:46:49.904Z,381.47
2023-02-14T01:46:59.902Z,381.42
2023-02-14T01:47:09.898Z,381.47
2023-02-14T01:47:19.903Z,381.44
2023-02-14T01:47:29.907Z,381.49
2023-02-14T01:47:39.917Z,381.49
2023-02-14T01:47:49.906Z,381.48
2023-02-14T01:47:59.909Z,381.57
2023-02-14T01:48:09.902Z,381.54
2023-02-14T01:48:19.912Z,381.60
2023-02-14T01:48:29.916Z,381.56
2023-02-14T01:48:39.917Z,381.61
2023-02-14T01:48:49.908Z,381.65
2023-02-14T01:48:59.914Z,381.61
2023-02-14T01:49:09.908Z,381.69
2023-02-14T01:49:19.907Z,381.71
2023-02-14T01:49:29.921Z,381.76
2023-02-14T01:49:39.924Z,381.77
2023-02-14T01:49:49.910Z,381.75
2023-02-14T01:49:59.918Z,381.79
2023-02-14T01:50:09.915Z,381.80
2023-02-14T01:50:19.915Z,381.89
2023-02-14T01:50:29.921Z,381.91
2023-02-14T01:50:39.931Z,381.90
2023-02-14T01:50:49.916Z,381.88
2023-02-14T01:51:00.198Z,381.96
2023-02-14T01:51:09.929Z,381.94
2023-02-14T01:51:19.923Z,382.04
2023-02-14T01:51:29.932Z,382.00
2023-02-14T01:51:39.927Z,382.06
2023-02-14T01:51:49.924Z,382.04
2023-02-14T01:52:00.907Z,382.10
2023-02-14T01:52:09.925Z,382.12
2023-02-14T01:52:19.931Z,382.15
2023-02-14T01:52:29.938Z,382.13
2023-02-14T01:52:39.924Z,382.10
2023-02-14T01:52:49.931Z,382.21
2023-02-14T01:52:59.936Z,382.14
2023-02-14T01:53:09.931Z,382.14
2023-02-14T01:53:19.934Z,382.23
2023-02-14T01:53:29.950Z,382.25
2023-02-14T01:53:39.939Z,382.19
2023-02-14T01:53:49.926Z,382.23
2023-02-14T01:53:59.941Z,382.17
2023-02-14T01:54:09.939Z,382.20
2023-02-14T01:54:19.943Z,382.17
2023-02-14T01:54:29.941Z,382.17
2023-02-14T01:54:39.945Z,382.08
2023-02-14T01:54:49.938Z,382.13
2023-02-14T01:54:59.941Z,382.12
2023-02-14T01:55:09.953Z,382.05
2023-02-14T01:55:19.950Z,382.10
2023-02-14T01:55:29.956Z,382.02
2023-02-14T01:55:39.953Z,382.02
2023-02-14T01:55:49.948Z,382.11
2023-02-14T01:55:59.956Z,382.06
2023-02-14T01:56:09.947Z,382.10
2023-02-14T01:56:19.951Z,382.05
2023-02-14T01:56:29.955Z,382.04
2023-02-14T01:56:39.953Z,382.06
2023-02-14T01:56:49.958Z,382.06
2023-02-14T01:56:59.964Z,381.98
2023-02-14T01:57:09.952Z,382.00
2023-02-14T01:57:19.957Z,382.03
2023-02-14T01:57:29.963Z,382.03
2023-02-14T01:57:39.954Z,382.02
2023-02-14T01:57:49.962Z,381.98
2023-02-14T01:57:59.957Z,381.98
2023-02-14T01:58:09.960Z,381.88
2023-02-14T01:58:19.971Z,381.83
2023-02-14T01:58:29.964Z,381.89
2023-02-14T01:58:39.958Z,381.87
2023-02-14T01:58:49.961Z,381.88
2023-02-14T01:58:59.961Z,381.86
2023-02-14T01:59:09.966Z,381.88
2023-02-14T01:59:19.970Z,381.96
2023-02-14T01:59:29.964Z,381.91
2023-02-14T01:59:39.965Z,381.92
2023-02-14T01:59:49.979Z,381.98
2023-02-14T01:59:59.989Z,382.04
2023-02-14T02:00:09.953Z,382.03
2023-02-14T02:00:19.957Z,382.00
2023-02-14T02:00:29.965Z,382.08
2023-02-14T02:00:39.975Z,382.03
2023-02-14T02:00:50.005Z,382.05
2023-02-14T02:01:00.439Z,382.00
2023-02-14T02:01:10.033Z,381.97
2023-02-14T02:01:20.060Z,381.99
2023-02-14T02:01:30.019Z,382.04
2023-02-14T02:01:40.039Z,382.03
2023-02-14T02:01:49.981Z,382.04
2023-02-14T02:02:00.029Z,382.09
2023-02-14T02:02:09.998Z,382.04
2023-02-14T02:02:20.041Z,382.06
2023-02-14T02:02:30.038Z,382.06
2023-02-14T02:02:40.042Z,382.12
2023-02-14T02:02:50.012Z,382.07
2023-02-14T02:02:59.990Z,382.14
2023-02-14T02:03:09.978Z,382.11
2023-02-14T02:03:19.981Z,382.18
2023-02-14T02:03:29.991Z,382.12
2023-02-14T02:03:39.986Z,382.13
2023-02-14T02:03:49.982Z,382.27
2023-02-14T02:03:59.989Z,382.19
2023-02-14T02:04:09.994Z,382.26
2023-02-14T02:04:19.986Z,382.25
2023-02-14T02:04:30.001Z,382.27
2023-02-14T02:04:39.996Z,382.36
2023-02-14T02:04:49.990Z,382.36